Terminal Aerodrome Forecast
Issued by NWS Bismarck, ND

Home | Current Version | Previous Version | Graphics & Text | Print | Product List | Glossary On
Versions: 1 2 3 4 5 6 7 8 9 10 11 12 13 14 15 16 17 18 19 20 21 22
954
FTUS43 KBIS 242000 AAA
TAFISN
TAF AMD
KISN 242000Z 2420/2518 25011G19KT P6SM VCTS SCT030 BKN100CB
     FM250000 26010KT P6SM FEW060 SCT120=

USA.gov is the U.S. government's official web portal to all federal, state and local government web resources and services.